Aeroporto :
LOGIN :

Iscrizione | Disclaimer

   EN    FR    IT 

 










Sommario :    VFR   VFR Marginale   IFR   IFR Intensivo   IFR Molto Intensivo
Visibilità : 
Base nubi : 
>= 8 km
>= 3000ft
5 / 8 km
1000 / 3000 ft
1500m / 5 km
500 / 1000 ft
800 / 1500m
200 / 500 ft
< 800m
< 200 ft
Simboli :   Temporali  Nebbia  Neve Forte  Precipitazioni Forti  Vento > 20 kt
SIGMETs :   Varie  Temporali  Ghiacco  Turbolenza  Onda orograficha  Ceneri Vulcaniche






- Altitudine del aeroporto : 1959 ft
- Codice IATA : HOQ


EDQM - Hof Plauen

ULTIMO METAR :
  • 211620Z 24009KT 9999 FEW035 03/M02 Q1025

METARs OBSOLETI :
  • 211550Z 24010KT 9999 FEW032 03/M02 Q1025
  • 211520Z 25009KT 9999 FEW035 03/M02 Q1025
  • 211450Z 25011KT 210V280 9999 FEW040 04/M02 Q1025
  • 211420Z 26014KT 9999 FEW037 04/M02 Q1025
  • 211350Z 25012KT 220V280 9999 SCT037 04/M01 Q1025

TAF TAF EDQM
Valido dal 21 a 15 ore il 22 a 00 ore UTC


211400Z 2115/2124 25015KT 9999 SCT030
BECMG 2116/2118 24007KT
BECMG 2122/2124 25012KT



MetMap, La meteo Aeronautica in un colpo d'occhio ! - Copyright ORBIFLY Dicembre 2007 - Disclaimer

ORBIFLY MET'MAP TEAM :

Programmazione e sviluppo : Alexandra Zaïnal
Concezione : Baudouin d'Aumeries
Aiuto per la programmazione : Marc-Olivier Méhu
Supporto tecnico e logistico : Manuel Goepfert
Aiuto per la traduzione : Arnaldo La Scala

Contatto : metmap@orbifly.com




FONTI E CREDITI :

   NOAA